sensor_id;sensor_type;location;lat;lon;timestamp;temperature;humidity
17565;DHT22;62994;52.126;5.596;2023-05-25T00:01:03;14.20;99.90
17565;DHT22;62994;52.126;5.596;2023-05-25T00:03:30;14.20;99.90
17565;DHT22;62994;52.126;5.596;2023-05-25T00:05:59;14.20;99.90
17565;DHT22;62994;52.126;5.596;2023-05-25T00:08:29;14.10;99.90
17565;DHT22;62994;52.126;5.596;2023-05-25T00:10:56;14.10;99.90
17565;DHT22;62994;52.126;5.596;2023-05-25T00:13:23;14.10;99.90
17565;DHT22;62994;52.126;5.596;2023-05-25T00:15:51;14.10;99.90
17565;DHT22;62994;52.126;5.596;2023-05-25T00:18:18;14.00;99.90
17565;DHT22;62994;52.126;5.596;2023-05-25T00:20:45;14.00;99.90
17565;DHT22;62994;52.126;5.596;2023-05-25T00:23:17;13.90;99.90
17565;DHT22;62994;52.126;5.596;2023-05-25T00:25:44;13.80;99.90
17565;DHT22;62994;52.126;5.596;2023-05-25T00:28:11;13.70;99.90
17565;DHT22;62994;52.126;5.596;2023-05-25T00:30:38;13.70;99.90
17565;DHT22;62994;52.126;5.596;2023-05-25T00:33:05;13.70;99.90
17565;DHT22;62994;52.126;5.596;2023-05-25T00:35:34;13.60;99.90
17565;DHT22;62994;52.126;5.596;2023-05-25T00:38:02;13.60;99.90
17565;DHT22;62994;52.126;5.596;2023-05-25T00:40:31;13.60;99.90
17565;DHT22;62994;52.126;5.596;2023-05-25T00:42:59;13.50;99.90
17565;DHT22;62994;52.126;5.596;2023-05-25T00:45:26;13.50;99.90
17565;DHT22;62994;52.126;5.596;2023-05-25T00:47:53;13.50;99.90
17565;DHT22;62994;52.126;5.596;2023-05-25T00:50:37;13.50;99.90
17565;DHT22;62994;52.126;5.596;2023-05-25T00:53:06;13.50;99.90
17565;DHT22;62994;52.126;5.596;2023-05-25T00:55:38;13.50;99.90
17565;DHT22;62994;52.126;5.596;2023-05-25T00:58:07;13.50;99.90
17565;DHT22;62994;52.126;5.596;2023-05-25T01:00:37;13.40;99.90
17565;DHT22;62994;52.126;5.596;2023-05-25T01:03:11;13.40;99.90
17565;DHT22;62994;52.126;5.596;2023-05-25T01:05:44;13.40;99.90
17565;DHT22;62994;52.126;5.596;2023-05-25T01:08:13;13.40;99.90
17565;DHT22;62994;52.126;5.596;2023-05-25T01:10:45;13.40;99.90
17565;DHT22;62994;52.126;5.596;2023-05-25T01:13:27;13.40;99.90
17565;DHT22;62994;52.126;5.596;2023-05-25T01:15:58;13.40;99.90
17565;DHT22;62994;52.126;5.596;2023-05-25T01:18:26;13.30;99.90
17565;DHT22;62994;52.126;5.596;2023-05-25T01:20:58;13.30;99.90
17565;DHT22;62994;52.126;5.596;2023-05-25T01:26:40;13.20;99.90
17565;DHT22;62994;52.126;5.596;2023-05-25T01:29:09;13.20;99.90
17565;DHT22;62994;52.126;5.596;2023-05-25T01:31:38;13.20;99.90
17565;DHT22;62994;52.126;5.596;2023-05-25T01:34:06;13.30;99.90
17565;DHT22;62994;52.126;5.596;2023-05-25T01:36:38;13.30;99.90
17565;DHT22;62994;52.126;5.596;2023-05-25T01:39:08;13.20;99.90
17565;DHT22;62994;52.126;5.596;2023-05-25T01:41:35;13.20;99.90
17565;DHT22;62994;52.126;5.596;2023-05-25T01:44:12;13.20;99.90
17565;DHT22;62994;52.126;5.596;2023-05-25T01:46:40;13.20;99.90
17565;DHT22;62994;52.126;5.596;2023-05-25T01:49:15;13.10;99.90
17565;DHT22;62994;52.126;5.596;2023-05-25T01:51:52;13.10;99.90
17565;DHT22;62994;52.126;5.596;2023-05-25T01:54:27;13.00;99.90
17565;DHT22;62994;52.126;5.596;2023-05-25T01:56:58;13.00;99.90
17565;DHT22;62994;52.126;5.596;2023-05-25T01:59:27;13.00;99.90
17565;DHT22;62994;52.126;5.596;2023-05-25T02:01:56;13.00;99.90
17565;DHT22;62994;52.126;5.596;2023-05-25T02:04:24;13.00;99.90
17565;DHT22;62994;52.126;5.596;2023-05-25T02:06:54;13.00;99.90
17565;DHT22;62994;52.126;5.596;2023-05-25T02:09:21;12.90;99.90
17565;DHT22;62994;52.126;5.596;2023-05-25T02:11:48;12.90;99.90
17565;DHT22;62994;52.126;5.596;2023-05-25T02:14:16;12.90;99.90
17565;DHT22;62994;52.126;5.596;2023-05-25T02:16:43;12.80;99.90
17565;DHT22;62994;52.126;5.596;2023-05-25T02:19:13;12.80;99.90
17565;DHT22;62994;52.126;5.596;2023-05-25T02:21:41;12.80;99.90
17565;DHT22;62994;52.126;5.596;2023-05-25T02:24:09;12.80;99.90
17565;DHT22;62994;52.126;5.596;2023-05-25T02:26:37;12.80;99.90
17565;DHT22;62994;52.126;5.596;2023-05-25T02:29:04;12.70;99.90
17565;DHT22;62994;52.126;5.596;2023-05-25T02:31:32;12.70;99.90
17565;DHT22;62994;52.126;5.596;2023-05-25T02:34:02;12.70;99.90
17565;DHT22;62994;52.126;5.596;2023-05-25T02:36:29;12.70;99.90
17565;DHT22;62994;52.126;5.596;2023-05-25T02:38:56;12.70;99.90
17565;DHT22;62994;52.126;5.596;2023-05-25T02:41:24;12.60;99.90
17565;DHT22;62994;52.126;5.596;2023-05-25T02:43:52;12.50;99.90
17565;DHT22;62994;52.126;5.596;2023-05-25T02:46:19;12.50;99.90
17565;DHT22;62994;52.126;5.596;2023-05-25T02:48:49;12.50;99.90
17565;DHT22;62994;52.126;5.596;2023-05-25T02:51:16;12.50;99.90
17565;DHT22;62994;52.126;5.596;2023-05-25T02:53:43;12.50;99.90
17565;DHT22;62994;52.126;5.596;2023-05-25T02:56:10;12.50;99.90
17565;DHT22;62994;52.126;5.596;2023-05-25T02:58:39;12.50;99.90
17565;DHT22;62994;52.126;5.596;2023-05-25T03:01:07;12.40;99.90
17565;DHT22;62994;52.126;5.596;2023-05-25T03:03:35;12.40;99.90
17565;DHT22;62994;52.126;5.596;2023-05-25T03:06:02;12.40;99.90
17565;DHT22;62994;52.126;5.596;2023-05-25T03:08:30;12.40;99.90
17565;DHT22;62994;52.126;5.596;2023-05-25T03:10:57;12.40;99.90
17565;DHT22;62994;52.126;5.596;2023-05-25T03:13:24;12.40;99.90
17565;DHT22;62994;52.126;5.596;2023-05-25T03:15:53;12.30;99.90
17565;DHT22;62994;52.126;5.596;2023-05-25T03:18:20;12.30;99.90
17565;DHT22;62994;52.126;5.596;2023-05-25T03:20:52;12.30;99.90
17565;DHT22;62994;52.126;5.596;2023-05-25T03:23:19;12.20;99.90
17565;DHT22;62994;52.126;5.596;2023-05-25T03:25:46;12.20;99.90
17565;DHT22;62994;52.126;5.596;2023-05-25T03:28:13;12.10;99.90
17565;DHT22;62994;52.126;5.596;2023-05-25T03:30:40;12.10;99.90
17565;DHT22;62994;52.126;5.596;2023-05-25T03:33:09;12.10;99.90
17565;DHT22;62994;52.126;5.596;2023-05-25T03:35:38;12.00;99.90
17565;DHT22;62994;52.126;5.596;2023-05-25T03:38:05;12.00;99.90
17565;DHT22;62994;52.126;5.596;2023-05-25T03:40:32;12.00;99.90
17565;DHT22;62994;52.126;5.596;2023-05-25T03:42:59;12.00;99.90
17565;DHT22;62994;52.126;5.596;2023-05-25T03:45:27;11.90;99.90
17565;DHT22;62994;52.126;5.596;2023-05-25T03:47:54;12.00;99.90
17565;DHT22;62994;52.126;5.596;2023-05-25T03:50:22;11.90;99.90
17565;DHT22;62994;52.126;5.596;2023-05-25T03:52:49;11.90;99.90
17565;DHT22;62994;52.126;5.596;2023-05-25T03:55:17;11.90;99.90
17565;DHT22;62994;52.126;5.596;2023-05-25T03:57:44;11.90;99.90
17565;DHT22;62994;52.126;5.596;2023-05-25T04:00:12;11.90;99.90
17565;DHT22;62994;52.126;5.596;2023-05-25T04:02:39;11.90;99.90
17565;DHT22;62994;52.126;5.596;2023-05-25T04:05:07;11.90;99.90
17565;DHT22;62994;52.126;5.596;2023-05-25T04:07:36;11.90;99.90
17565;DHT22;62994;52.126;5.596;2023-05-25T04:10:04;11.90;99.90
17565;DHT22;62994;52.126;5.596;2023-05-25T04:12:32;11.90;99.90
17565;DHT22;62994;52.126;5.596;2023-05-25T04:14:59;11.90;99.90
17565;DHT22;62994;52.126;5.596;2023-05-25T04:17:28;11.90;99.90
17565;DHT22;62994;52.126;5.596;2023-05-25T04:19:55;12.00;99.90
17565;DHT22;62994;52.126;5.596;2023-05-25T04:22:22;12.00;99.90
17565;DHT22;62994;52.126;5.596;2023-05-25T04:24:51;11.90;99.90
17565;DHT22;62994;52.126;5.596;2023-05-25T04:27:18;12.00;99.90
17565;DHT22;62994;52.126;5.596;2023-05-25T04:29:45;11.90;99.90
17565;DHT22;62994;52.126;5.596;2023-05-25T04:32:19;11.90;99.90
17565;DHT22;62994;52.126;5.596;2023-05-25T04:34:49;11.90;99.90
17565;DHT22;62994;52.126;5.596;2023-05-25T04:37:16;11.80;99.90
17565;DHT22;62994;52.126;5.596;2023-05-25T04:39:44;11.80;99.90
17565;DHT22;62994;52.126;5.596;2023-05-25T04:42:12;11.80;99.90
17565;DHT22;62994;52.126;5.596;2023-05-25T04:44:40;11.80;99.90
17565;DHT22;62994;52.126;5.596;2023-05-25T04:47:08;11.80;99.90
17565;DHT22;62994;52.126;5.596;2023-05-25T04:49:35;11.70;99.90
17565;DHT22;62994;52.126;5.596;2023-05-25T04:52:09;11.80;99.90
17565;DHT22;62994;52.126;5.596;2023-05-25T04:54:36;11.70;99.90
17565;DHT22;62994;52.126;5.596;2023-05-25T04:57:04;11.70;99.90
17565;DHT22;62994;52.126;5.596;2023-05-25T04:59:32;11.80;99.90
17565;DHT22;62994;52.126;5.596;2023-05-25T05:02:00;11.80;99.90
17565;DHT22;62994;52.126;5.596;2023-05-25T05:04:27;11.90;99.90
17565;DHT22;62994;52.126;5.596;2023-05-25T05:06:55;11.90;99.90
17565;DHT22;62994;52.126;5.596;2023-05-25T05:09:22;12.00;99.90
17565;DHT22;62994;52.126;5.596;2023-05-25T05:11:49;11.90;99.90
17565;DHT22;62994;52.126;5.596;2023-05-25T05:14:16;11.90;99.90
17565;DHT22;62994;52.126;5.596;2023-05-25T05:16:45;11.90;99.90
17565;DHT22;62994;52.126;5.596;2023-05-25T05:19:13;11.90;99.90
17565;DHT22;62994;52.126;5.596;2023-05-25T05:21:40;11.90;99.90
17565;DHT22;62994;52.126;5.596;2023-05-25T05:24:07;11.90;99.90
17565;DHT22;62994;52.126;5.596;2023-05-25T05:26:41;11.90;99.90
17565;DHT22;62994;52.126;5.596;2023-05-25T05:29:13;11.90;99.90
17565;DHT22;62994;52.126;5.596;2023-05-25T05:31:41;11.90;99.90
17565;DHT22;62994;52.126;5.596;2023-05-25T05:34:15;11.80;99.90
17565;DHT22;62994;52.126;5.596;2023-05-25T05:36:42;11.80;99.90
17565;DHT22;62994;52.126;5.596;2023-05-25T05:39:09;11.90;99.90
17565;DHT22;62994;52.126;5.596;2023-05-25T05:41:41;11.90;99.90
17565;DHT22;62994;52.126;5.596;2023-05-25T05:44:15;11.90;99.90
17565;DHT22;62994;52.126;5.596;2023-05-25T05:46:42;12.00;99.90
17565;DHT22;62994;52.126;5.596;2023-05-25T05:49:09;12.00;99.90
17565;DHT22;62994;52.126;5.596;2023-05-25T05:51:38;12.10;99.90
17565;DHT22;62994;52.126;5.596;2023-05-25T05:54:06;12.10;99.90
17565;DHT22;62994;52.126;5.596;2023-05-25T05:56:33;12.20;99.90
17565;DHT22;62994;52.126;5.596;2023-05-25T05:59:03;12.20;99.90
17565;DHT22;62994;52.126;5.596;2023-05-25T06:01:31;12.20;99.90
17565;DHT22;62994;52.126;5.596;2023-05-25T06:04:00;12.30;99.90
17565;DHT22;62994;52.126;5.596;2023-05-25T06:06:27;12.40;99.90
17565;DHT22;62994;52.126;5.596;2023-05-25T06:08:56;12.40;99.90
17565;DHT22;62994;52.126;5.596;2023-05-25T06:11:25;12.40;99.90
17565;DHT22;62994;52.126;5.596;2023-05-25T06:13:52;12.40;99.90
17565;DHT22;62994;52.126;5.596;2023-05-25T06:16:19;12.50;99.90
17565;DHT22;62994;52.126;5.596;2023-05-25T06:18:55;12.60;99.90
17565;DHT22;62994;52.126;5.596;2023-05-25T06:21:22;12.70;99.90
17565;DHT22;62994;52.126;5.596;2023-05-25T06:23:49;12.60;99.90
17565;DHT22;62994;52.126;5.596;2023-05-25T06:26:18;12.70;99.90
17565;DHT22;62994;52.126;5.596;2023-05-25T06:28:45;12.80;99.90
17565;DHT22;62994;52.126;5.596;2023-05-25T06:31:13;12.90;99.90
17565;DHT22;62994;52.126;5.596;2023-05-25T06:33:40;13.00;99.90
17565;DHT22;62994;52.126;5.596;2023-05-25T06:36:12;13.00;99.90
17565;DHT22;62994;52.126;5.596;2023-05-25T06:38:40;13.10;99.90
17565;DHT22;62994;52.126;5.596;2023-05-25T06:41:09;13.20;99.90
17565;DHT22;62994;52.126;5.596;2023-05-25T06:43:41;13.30;99.90
17565;DHT22;62994;52.126;5.596;2023-05-25T06:46:08;13.40;99.90
17565;DHT22;62994;52.126;5.596;2023-05-25T06:48:35;13.40;99.90
17565;DHT22;62994;52.126;5.596;2023-05-25T06:51:03;13.50;99.90
17565;DHT22;62994;52.126;5.596;2023-05-25T06:53:30;13.50;99.90
17565;DHT22;62994;52.126;5.596;2023-05-25T06:55:58;13.50;99.90
17565;DHT22;62994;52.126;5.596;2023-05-25T06:58:25;13.60;99.90
17565;DHT22;62994;52.126;5.596;2023-05-25T07:00:57;13.60;99.90
17565;DHT22;62994;52.126;5.596;2023-05-25T07:03:25;13.70;99.90
17565;DHT22;62994;52.126;5.596;2023-05-25T07:05:52;13.80;99.90
17565;DHT22;62994;52.126;5.596;2023-05-25T07:08:20;13.80;99.90
17565;DHT22;62994;52.126;5.596;2023-05-25T07:10:47;13.90;99.90
17565;DHT22;62994;52.126;5.596;2023-05-25T07:13:14;14.00;99.90
17565;DHT22;62994;52.126;5.596;2023-05-25T07:15:41;14.10;99.90
17565;DHT22;62994;52.126;5.596;2023-05-25T07:18:09;14.20;99.90
17565;DHT22;62994;52.126;5.596;2023-05-25T07:20:38;14.20;99.90
17565;DHT22;62994;52.126;5.596;2023-05-25T07:23:07;14.30;99.90
17565;DHT22;62994;52.126;5.596;2023-05-25T07:25:34;14.40;99.90
17565;DHT22;62994;52.126;5.596;2023-05-25T07:28:02;14.50;99.90
17565;DHT22;62994;52.126;5.596;2023-05-25T07:30:34;14.60;99.90
17565;DHT22;62994;52.126;5.596;2023-05-25T07:33:01;14.70;99.90
17565;DHT22;62994;52.126;5.596;2023-05-25T07:35:32;14.80;99.90
17565;DHT22;62994;52.126;5.596;2023-05-25T07:38:02;14.90;99.90
17565;DHT22;62994;52.126;5.596;2023-05-25T07:40:30;14.90;99.90
17565;DHT22;62994;52.126;5.596;2023-05-25T07:42:57;15.00;99.90
17565;DHT22;62994;52.126;5.596;2023-05-25T07:45:24;15.00;99.90
17565;DHT22;62994;52.126;5.596;2023-05-25T07:47:51;15.00;99.90
17565;DHT22;62994;52.126;5.596;2023-05-25T07:50:18;15.20;99.90
17565;DHT22;62994;52.126;5.596;2023-05-25T07:52:46;15.20;99.90
17565;DHT22;62994;52.126;5.596;2023-05-25T07:55:13;15.30;99.90
17565;DHT22;62994;52.126;5.596;2023-05-25T07:57:40;15.40;99.90
17565;DHT22;62994;52.126;5.596;2023-05-25T08:00:09;15.50;99.90
17565;DHT22;62994;52.126;5.596;2023-05-25T08:02:36;15.60;99.90
17565;DHT22;62994;52.126;5.596;2023-05-25T08:05:04;15.70;99.90
17565;DHT22;62994;52.126;5.596;2023-05-25T08:07:31;15.80;99.90
17565;DHT22;62994;52.126;5.596;2023-05-25T08:10:00;15.90;99.90
17565;DHT22;62994;52.126;5.596;2023-05-25T08:12:27;16.00;99.90
17565;DHT22;62994;52.126;5.596;2023-05-25T08:14:55;16.00;99.90
17565;DHT22;62994;52.126;5.596;2023-05-25T08:17:22;16.10;99.90
17565;DHT22;62994;52.126;5.596;2023-05-25T08:19:50;16.20;99.90
17565;DHT22;62994;52.126;5.596;2023-05-25T08:22:17;16.20;99.90
17565;DHT22;62994;52.126;5.596;2023-05-25T08:24:44;16.30;99.90
17565;DHT22;62994;52.126;5.596;2023-05-25T08:27:13;16.40;99.90
17565;DHT22;62994;52.126;5.596;2023-05-25T08:29:40;16.40;99.90
17565;DHT22;62994;52.126;5.596;2023-05-25T08:32:07;16.50;99.90
17565;DHT22;62994;52.126;5.596;2023-05-25T08:34:34;16.60;99.90
17565;DHT22;62994;52.126;5.596;2023-05-25T08:37:01;16.60;99.90
17565;DHT22;62994;52.126;5.596;2023-05-25T08:39:28;16.70;99.90
17565;DHT22;62994;52.126;5.596;2023-05-25T08:41:57;16.70;99.90
17565;DHT22;62994;52.126;5.596;2023-05-25T08:44:26;16.80;99.90
17565;DHT22;62994;52.126;5.596;2023-05-25T08:46:55;16.90;99.90
17565;DHT22;62994;52.126;5.596;2023-05-25T08:49:22;17.00;99.90
17565;DHT22;62994;52.126;5.596;2023-05-25T08:51:53;17.10;99.90
17565;DHT22;62994;52.126;5.596;2023-05-25T08:54:24;17.30;99.90
17565;DHT22;62994;52.126;5.596;2023-05-25T08:56:58;17.40;99.90
17565;DHT22;62994;52.126;5.596;2023-05-25T08:59:33;17.40;99.90
17565;DHT22;62994;52.126;5.596;2023-05-25T09:02:12;17.50;99.90
17565;DHT22;62994;52.126;5.596;2023-05-25T09:04:42;17.60;99.90
17565;DHT22;62994;52.126;5.596;2023-05-25T09:07:11;17.70;99.90
17565;DHT22;62994;52.126;5.596;2023-05-25T09:09:41;17.90;99.90
17565;DHT22;62994;52.126;5.596;2023-05-25T09:12:10;18.00;99.90
17565;DHT22;62994;52.126;5.596;2023-05-25T09:14:39;18.10;99.90
17565;DHT22;62994;52.126;5.596;2023-05-25T09:17:11;18.30;99.90
17565;DHT22;62994;52.126;5.596;2023-05-25T09:19:38;18.40;99.90
17565;DHT22;62994;52.126;5.596;2023-05-25T09:22:05;18.60;99.90
17565;DHT22;62994;52.126;5.596;2023-05-25T09:24:33;18.70;99.90
17565;DHT22;62994;52.126;5.596;2023-05-25T09:27:01;18.80;99.90
17565;DHT22;62994;52.126;5.596;2023-05-25T09:29:30;18.90;99.90
17565;DHT22;62994;52.126;5.596;2023-05-25T09:31:59;19.10;99.90
17565;DHT22;62994;52.126;5.596;2023-05-25T09:34:30;19.20;99.90
17565;DHT22;62994;52.126;5.596;2023-05-25T09:37:02;19.30;99.90
17565;DHT22;62994;52.126;5.596;2023-05-25T09:39:30;19.30;99.90
17565;DHT22;62994;52.126;5.596;2023-05-25T09:41:57;19.40;99.90
17565;DHT22;62994;52.126;5.596;2023-05-25T09:44:26;19.30;99.90
17565;DHT22;62994;52.126;5.596;2023-05-25T09:46:54;19.40;99.90
17565;DHT22;62994;52.126;5.596;2023-05-25T09:49:23;19.40;99.90
17565;DHT22;62994;52.126;5.596;2023-05-25T09:51:50;19.30;99.90
17565;DHT22;62994;52.126;5.596;2023-05-25T09:54:17;19.40;99.90
17565;DHT22;62994;52.126;5.596;2023-05-25T09:56:47;19.20;99.90
17565;DHT22;62994;52.126;5.596;2023-05-25T09:59:15;19.30;99.90
17565;DHT22;62994;52.126;5.596;2023-05-25T10:01:42;19.20;99.90
17565;DHT22;62994;52.126;5.596;2023-05-25T10:04:14;19.20;99.90
17565;DHT22;62994;52.126;5.596;2023-05-25T10:06:44;19.20;99.90
17565;DHT22;62994;52.126;5.596;2023-05-25T10:09:14;19.30;99.90
17565;DHT22;62994;52.126;5.596;2023-05-25T10:11:44;19.30;99.90
17565;DHT22;62994;52.126;5.596;2023-05-25T10:14:14;19.40;99.90
17565;DHT22;62994;52.126;5.596;2023-05-25T10:16:47;19.50;99.90
17565;DHT22;62994;52.126;5.596;2023-05-25T10:19:19;19.70;99.90
17565;DHT22;62994;52.126;5.596;2023-05-25T10:21:53;19.80;99.90
17565;DHT22;62994;52.126;5.596;2023-05-25T10:24:29;19.90;99.90
17565;DHT22;62994;52.126;5.596;2023-05-25T10:26:58;20.00;99.90
17565;DHT22;62994;52.126;5.596;2023-05-25T10:29:30;20.10;99.90
17565;DHT22;62994;52.126;5.596;2023-05-25T10:32:02;20.20;99.90
17565;DHT22;62994;52.126;5.596;2023-05-25T10:34:29;20.20;99.90
17565;DHT22;62994;52.126;5.596;2023-05-25T10:36:58;20.10;99.90
17565;DHT22;62994;52.126;5.596;2023-05-25T10:39:32;20.10;99.90
17565;DHT22;62994;52.126;5.596;2023-05-25T10:42:09;20.10;99.90
17565;DHT22;62994;52.126;5.596;2023-05-25T10:44:40;20.10;99.90
17565;DHT22;62994;52.126;5.596;2023-05-25T10:47:08;20.20;99.90
17565;DHT22;62994;52.126;5.596;2023-05-25T10:49:52;20.20;99.90
17565;DHT22;62994;52.126;5.596;2023-05-25T10:52:21;20.30;99.90
17565;DHT22;62994;52.126;5.596;2023-05-25T10:54:57;20.40;99.90
17565;DHT22;62994;52.126;5.596;2023-05-25T10:57:26;20.30;99.90
17565;DHT22;62994;52.126;5.596;2023-05-25T11:00:02;20.40;99.90
17565;DHT22;62994;52.126;5.596;2023-05-25T11:02:51;20.30;99.90
17565;DHT22;62994;52.126;5.596;2023-05-25T11:05:38;20.20;99.90
17565;DHT22;62994;52.126;5.596;2023-05-25T11:08:13;20.20;99.90
17565;DHT22;62994;52.126;5.596;2023-05-25T11:10:51;20.20;99.90
17565;DHT22;62994;52.126;5.596;2023-05-25T11:13:23;20.20;99.90
17565;DHT22;62994;52.126;5.596;2023-05-25T11:16:16;20.20;99.90
17565;DHT22;62994;52.126;5.596;2023-05-25T11:18:45;20.20;99.90
17565;DHT22;62994;52.126;5.596;2023-05-25T11:21:42;20.10;99.90
17565;DHT22;62994;52.126;5.596;2023-05-25T11:24:16;20.20;99.90
17565;DHT22;62994;52.126;5.596;2023-05-25T11:26:58;20.40;99.90
17565;DHT22;62994;52.126;5.596;2023-05-25T11:29:31;20.40;99.90
17565;DHT22;62994;52.126;5.596;2023-05-25T11:32:00;20.50;99.90
17565;DHT22;62994;52.126;5.596;2023-05-25T11:34:29;20.40;99.90
17565;DHT22;62994;52.126;5.596;2023-05-25T11:37:01;20.40;99.90
17565;DHT22;62994;52.126;5.596;2023-05-25T11:39:35;20.30;99.90
17565;DHT22;62994;52.126;5.596;2023-05-25T11:42:04;20.20;99.90
17565;DHT22;62994;52.126;5.596;2023-05-25T11:44:34;20.20;99.90
17565;DHT22;62994;52.126;5.596;2023-05-25T11:47:05;20.30;99.90
17565;DHT22;62994;52.126;5.596;2023-05-25T11:49:37;20.40;99.90
17565;DHT22;62994;52.126;5.596;2023-05-25T11:52:07;20.30;99.90
17565;DHT22;62994;52.126;5.596;2023-05-25T11:54:37;20.30;99.90
17565;DHT22;62994;52.126;5.596;2023-05-25T11:57:13;20.30;99.90
17565;DHT22;62994;52.126;5.596;2023-05-25T11:59:46;20.40;99.90
17565;DHT22;62994;52.126;5.596;2023-05-25T12:02:15;20.30;99.90
17565;DHT22;62994;52.126;5.596;2023-05-25T12:04:52;20.30;99.90
17565;DHT22;62994;52.126;5.596;2023-05-25T12:07:20;20.40;99.90
17565;DHT22;62994;52.126;5.596;2023-05-25T12:09:49;20.40;99.90
17565;DHT22;62994;52.126;5.596;2023-05-25T12:12:16;20.50;99.90
17565;DHT22;62994;52.126;5.596;2023-05-25T12:14:47;20.60;99.90
17565;DHT22;62994;52.126;5.596;2023-05-25T12:17:15;20.80;99.90
17565;DHT22;62994;52.126;5.596;2023-05-25T12:19:44;20.80;99.90
17565;DHT22;62994;52.126;5.596;2023-05-25T12:22:12;20.90;99.90
17565;DHT22;62994;52.126;5.596;2023-05-25T12:24:40;21.00;99.90
17565;DHT22;62994;52.126;5.596;2023-05-25T12:27:18;21.00;99.90
17565;DHT22;62994;52.126;5.596;2023-05-25T12:29:48;21.20;99.90
17565;DHT22;62994;52.126;5.596;2023-05-25T12:32:17;21.20;99.90
17565;DHT22;62994;52.126;5.596;2023-05-25T12:34:44;21.10;99.90
17565;DHT22;62994;52.126;5.596;2023-05-25T12:37:17;21.10;99.90
17565;DHT22;62994;52.126;5.596;2023-05-25T12:39:47;21.10;99.90
17565;DHT22;62994;52.126;5.596;2023-05-25T12:42:17;21.00;99.90
17565;DHT22;62994;52.126;5.596;2023-05-25T12:44:45;21.10;99.90
17565;DHT22;62994;52.126;5.596;2023-05-25T12:47:15;21.10;99.90
17565;DHT22;62994;52.126;5.596;2023-05-25T12:49:46;20.80;99.90
17565;DHT22;62994;52.126;5.596;2023-05-25T12:52:31;20.80;99.90
17565;DHT22;62994;52.126;5.596;2023-05-25T12:55:21;20.90;99.90
17565;DHT22;62994;52.126;5.596;2023-05-25T12:57:53;20.80;99.90
17565;DHT22;62994;52.126;5.596;2023-05-25T13:00:21;20.80;99.90
17565;DHT22;62994;52.126;5.596;2023-05-25T13:02:49;20.90;99.90
17565;DHT22;62994;52.126;5.596;2023-05-25T13:05:20;20.90;99.90
17565;DHT22;62994;52.126;5.596;2023-05-25T13:07:50;20.90;99.90
17565;DHT22;62994;52.126;5.596;2023-05-25T13:10:23;21.00;99.90
17565;DHT22;62994;52.126;5.596;2023-05-25T13:12:52;21.10;99.90
17565;DHT22;62994;52.126;5.596;2023-05-25T13:15:27;21.20;99.90
17565;DHT22;62994;52.126;5.596;2023-05-25T13:17:55;21.20;99.90
17565;DHT22;62994;52.126;5.596;2023-05-25T13:20:27;21.40;99.90
17565;DHT22;62994;52.126;5.596;2023-05-25T13:22:57;21.50;99.90
17565;DHT22;62994;52.126;5.596;2023-05-25T13:25:29;21.50;99.90
17565;DHT22;62994;52.126;5.596;2023-05-25T13:27:58;21.70;99.90
17565;DHT22;62994;52.126;5.596;2023-05-25T13:30:26;21.60;99.90
17565;DHT22;62994;52.126;5.596;2023-05-25T13:32:59;21.70;99.90
17565;DHT22;62994;52.126;5.596;2023-05-25T13:35:29;21.60;99.90
17565;DHT22;62994;52.126;5.596;2023-05-25T13:38:24;21.60;99.90
17565;DHT22;62994;52.126;5.596;2023-05-25T13:40:56;21.60;99.90
17565;DHT22;62994;52.126;5.596;2023-05-25T13:43:24;21.50;99.90
17565;DHT22;62994;52.126;5.596;2023-05-25T13:45:51;21.40;99.90
17565;DHT22;62994;52.126;5.596;2023-05-25T13:48:25;21.40;99.90
17565;DHT22;62994;52.126;5.596;2023-05-25T13:50:52;21.40;99.90
17565;DHT22;62994;52.126;5.596;2023-05-25T13:53:20;21.50;99.90
17565;DHT22;62994;52.126;5.596;2023-05-25T13:55:47;21.50;99.90
17565;DHT22;62994;52.126;5.596;2023-05-25T13:58:17;21.50;99.90
17565;DHT22;62994;52.126;5.596;2023-05-25T14:00:51;21.80;99.90
17565;DHT22;62994;52.126;5.596;2023-05-25T14:03:20;22.00;99.90
17565;DHT22;62994;52.126;5.596;2023-05-25T14:05:47;22.20;99.90
17565;DHT22;62994;52.126;5.596;2023-05-25T14:08:17;22.40;99.90
17565;DHT22;62994;52.126;5.596;2023-05-25T14:10:44;22.80;99.90
17565;DHT22;62994;52.126;5.596;2023-05-25T14:13:12;22.90;99.90
17565;DHT22;62994;52.126;5.596;2023-05-25T14:15:42;22.90;99.90
17565;DHT22;62994;52.126;5.596;2023-05-25T14:18:10;22.90;99.90
17565;DHT22;62994;52.126;5.596;2023-05-25T14:20:38;23.10;99.90
17565;DHT22;62994;52.126;5.596;2023-05-25T14:23:07;23.20;99.90
17565;DHT22;62994;52.126;5.596;2023-05-25T14:25:35;23.40;99.90
17565;DHT22;62994;52.126;5.596;2023-05-25T14:28:02;23.50;99.90
17565;DHT22;62994;52.126;5.596;2023-05-25T14:30:29;23.50;99.90
17565;DHT22;62994;52.126;5.596;2023-05-25T14:32:59;23.70;99.90
17565;DHT22;62994;52.126;5.596;2023-05-25T14:35:28;23.80;99.90
17565;DHT22;62994;52.126;5.596;2023-05-25T14:37:55;24.00;99.90
17565;DHT22;62994;52.126;5.596;2023-05-25T14:40:22;24.00;99.90
17565;DHT22;62994;52.126;5.596;2023-05-25T14:42:50;24.10;99.90
17565;DHT22;62994;52.126;5.596;2023-05-25T14:45:20;24.30;99.90
17565;DHT22;62994;52.126;5.596;2023-05-25T14:47:47;24.30;99.90
17565;DHT22;62994;52.126;5.596;2023-05-25T14:50:15;24.50;99.90
17565;DHT22;62994;52.126;5.596;2023-05-25T14:52:48;24.60;99.90
17565;DHT22;62994;52.126;5.596;2023-05-25T14:55:16;24.70;99.90
17565;DHT22;62994;52.126;5.596;2023-05-25T14:57:43;24.70;99.90
17565;DHT22;62994;52.126;5.596;2023-05-25T15:00:11;24.70;99.90
17565;DHT22;62994;52.126;5.596;2023-05-25T15:02:46;24.90;99.90
17565;DHT22;62994;52.126;5.596;2023-05-25T15:08:13;25.00;99.90
17565;DHT22;62994;52.126;5.596;2023-05-25T15:10:40;25.00;99.90
17565;DHT22;62994;52.126;5.596;2023-05-25T15:13:08;24.80;99.90
17565;DHT22;62994;52.126;5.596;2023-05-25T15:15:35;24.70;99.90
17565;DHT22;62994;52.126;5.596;2023-05-25T15:18:03;24.70;99.90
17565;DHT22;62994;52.126;5.596;2023-05-25T15:20:31;24.90;99.90
17565;DHT22;62994;52.126;5.596;2023-05-25T15:23:00;24.90;99.90
17565;DHT22;62994;52.126;5.596;2023-05-25T15:25:29;25.00;99.90
17565;DHT22;62994;52.126;5.596;2023-05-25T15:28:03;25.00;99.90
17565;DHT22;62994;52.126;5.596;2023-05-25T15:30:36;25.20;99.90
17565;DHT22;62994;52.126;5.596;2023-05-25T15:33:05;25.10;99.90
17565;DHT22;62994;52.126;5.596;2023-05-25T15:35:41;25.30;99.90
17565;DHT22;62994;52.126;5.596;2023-05-25T15:38:09;25.30;99.90
17565;DHT22;62994;52.126;5.596;2023-05-25T15:40:42;25.50;99.90
17565;DHT22;62994;52.126;5.596;2023-05-25T15:43:17;25.60;99.90
17565;DHT22;62994;52.126;5.596;2023-05-25T15:45:53;25.80;99.90
17565;DHT22;62994;52.126;5.596;2023-05-25T15:48:34;25.80;99.90
17565;DHT22;62994;52.126;5.596;2023-05-25T15:51:05;25.70;99.90